sensor_id;sensor_type;location;lat;lon;timestamp;pressure;altitude;pressure_sealevel;temperature;humidity
69402;BME280;56589;51.992;5.924;2023-05-29T00:00:09;101811.91;;;10.47;67.55
69402;BME280;56589;51.992;5.924;2023-05-29T00:02:35;101825.25;;;10.42;67.33
69402;BME280;56589;51.992;5.924;2023-05-29T00:05:05;101824.53;;;10.39;67.29
69402;BME280;56589;51.992;5.924;2023-05-29T00:07:31;101822.91;;;10.36;67.82
69402;BME280;56589;51.992;5.924;2023-05-29T00:09:57;101824.75;;;10.34;67.66
69402;BME280;56589;51.992;5.924;2023-05-29T00:12:23;101828.38;;;10.32;67.87
69402;BME280;56589;51.992;5.924;2023-05-29T00:14:48;101820.72;;;10.27;67.74
69402;BME280;56589;51.992;5.924;2023-05-29T00:17:15;101826.13;;;10.24;67.85
69402;BME280;56589;51.992;5.924;2023-05-29T00:19:40;101817.50;;;10.20;68.27
69402;BME280;56589;51.992;5.924;2023-05-29T00:22:09;101835.16;;;10.17;68.16
69402;BME280;56589;51.992;5.924;2023-05-29T00:24:35;101831.75;;;10.15;68.22
69402;BME280;56589;51.992;5.924;2023-05-29T00:27:01;101832.81;;;10.11;67.94
69402;BME280;56589;51.992;5.924;2023-05-29T00:29:26;101837.38;;;10.07;68.20
69402;BME280;56589;51.992;5.924;2023-05-29T00:31:52;101830.47;;;10.04;67.64
69402;BME280;56589;51.992;5.924;2023-05-29T00:34:18;101834.88;;;10.04;67.88
69402;BME280;56589;51.992;5.924;2023-05-29T00:36:44;101831.41;;;10.03;67.46
69402;BME280;56589;51.992;5.924;2023-05-29T00:39:13;101841.03;;;10.03;67.70
69402;BME280;56589;51.992;5.924;2023-05-29T00:41:38;101839.41;;;10.00;67.66
69402;BME280;56589;51.992;5.924;2023-05-29T00:44:04;101843.09;;;9.96;67.52
69402;BME280;56589;51.992;5.924;2023-05-29T00:46:31;101837.91;;;9.95;67.69
69402;BME280;56589;51.992;5.924;2023-05-29T00:48:58;101840.66;;;9.92;67.23
69402;BME280;56589;51.992;5.924;2023-05-29T00:51:25;101852.16;;;9.89;67.30
69402;BME280;56589;51.992;5.924;2023-05-29T00:53:53;101844.41;;;9.86;67.29
69402;BME280;56589;51.992;5.924;2023-05-29T00:56:22;101840.94;;;9.86;67.36
69402;BME280;56589;51.992;5.924;2023-05-29T00:58:49;101842.78;;;9.84;67.32
69402;BME280;56589;51.992;5.924;2023-05-29T01:01:18;101849.81;;;9.83;66.96
69402;BME280;56589;51.992;5.924;2023-05-29T01:03:44;101849.16;;;9.78;67.11
69402;BME280;56589;51.992;5.924;2023-05-29T01:06:11;101858.88;;;9.76;67.34
69402;BME280;56589;51.992;5.924;2023-05-29T01:08:37;101857.00;;;9.78;67.20
69402;BME280;56589;51.992;5.924;2023-05-29T01:11:18;101860.63;;;9.75;66.77
69402;BME280;56589;51.992;5.924;2023-05-29T01:13:57;101853.72;;;9.73;67.08
69402;BME280;56589;51.992;5.924;2023-05-29T01:16:32;101866.91;;;9.71;67.01
69402;BME280;56589;51.992;5.924;2023-05-29T01:19:10;101864.38;;;9.70;67.19
69402;BME280;56589;51.992;5.924;2023-05-29T01:21:58;101877.66;;;9.65;67.01
69402;BME280;56589;51.992;5.924;2023-05-29T01:24:41;101874.38;;;9.60;67.12
69402;BME280;56589;51.992;5.924;2023-05-29T01:27:18;101877.00;;;9.60;67.16
69402;BME280;56589;51.992;5.924;2023-05-29T01:29:47;101890.28;;;9.57;67.34
69402;BME280;56589;51.992;5.924;2023-05-29T01:32:15;101888.56;;;9.56;67.25
69402;BME280;56589;51.992;5.924;2023-05-29T01:34:42;101885.97;;;9.55;67.15
69402;BME280;56589;51.992;5.924;2023-05-29T01:37:08;101886.13;;;9.52;67.69
69402;BME280;56589;51.992;5.924;2023-05-29T01:39:34;101881.84;;;9.49;67.22
69402;BME280;56589;51.992;5.924;2023-05-29T01:42:01;101887.34;;;9.43;67.66
69402;BME280;56589;51.992;5.924;2023-05-29T01:44:31;101888.41;;;9.39;67.59
69402;BME280;56589;51.992;5.924;2023-05-29T01:46:57;101885.91;;;9.36;67.89
69402;BME280;56589;51.992;5.924;2023-05-29T01:49:24;101886.91;;;9.33;68.01
69402;BME280;56589;51.992;5.924;2023-05-29T01:51:51;101885.19;;;9.32;67.74
69402;BME280;56589;51.992;5.924;2023-05-29T01:54:17;101886.97;;;9.32;68.16
69402;BME280;56589;51.992;5.924;2023-05-29T01:56:44;101885.31;;;9.29;68.05
69402;BME280;56589;51.992;5.924;2023-05-29T01:59:12;101884.44;;;9.29;68.01
69402;BME280;56589;51.992;5.924;2023-05-29T02:01:41;101889.84;;;9.26;68.23
69402;BME280;56589;51.992;5.924;2023-05-29T02:04:07;101882.13;;;9.21;68.59
69402;BME280;56589;51.992;5.924;2023-05-29T02:06:33;101883.06;;;9.18;68.69
69402;BME280;56589;51.992;5.924;2023-05-29T02:08:59;101888.47;;;9.15;69.00
69402;BME280;56589;51.992;5.924;2023-05-29T02:11:24;101887.59;;;9.15;68.93
69402;BME280;56589;51.992;5.924;2023-05-29T02:13:50;101886.03;;;9.11;69.09
69402;BME280;56589;51.992;5.924;2023-05-29T02:16:16;101883.47;;;9.09;68.82
69402;BME280;56589;51.992;5.924;2023-05-29T02:18:45;101892.31;;;9.07;69.37
69402;BME280;56589;51.992;5.924;2023-05-29T02:21:10;101886.44;;;9.00;69.66
69402;BME280;56589;51.992;5.924;2023-05-29T02:23:37;101883.81;;;9.00;69.30
69402;BME280;56589;51.992;5.924;2023-05-29T02:26:04;101880.34;;;9.00;69.67
69402;BME280;56589;51.992;5.924;2023-05-29T02:28:29;101878.78;;;8.95;70.11
69402;BME280;56589;51.992;5.924;2023-05-29T02:30:55;101882.31;;;8.94;69.73
69402;BME280;56589;51.992;5.924;2023-05-29T02:33:21;101870.97;;;8.94;70.18
69402;BME280;56589;51.992;5.924;2023-05-29T02:35:50;101875.56;;;8.89;70.11
69402;BME280;56589;51.992;5.924;2023-05-29T02:38:15;101869.56;;;8.85;70.59
69402;BME280;56589;51.992;5.924;2023-05-29T02:40:41;101865.31;;;8.83;70.62
69402;BME280;56589;51.992;5.924;2023-05-29T02:43:08;101862.72;;;8.83;70.16
69402;BME280;56589;51.992;5.924;2023-05-29T02:45:37;101853.94;;;8.84;70.32
69402;BME280;56589;51.992;5.924;2023-05-29T02:48:03;101868.81;;;8.83;70.49
69402;BME280;56589;51.992;5.924;2023-05-29T02:50:29;101869.66;;;8.84;70.37
69402;BME280;56589;51.992;5.924;2023-05-29T02:52:58;101884.53;;;8.82;70.37
69402;BME280;56589;51.992;5.924;2023-05-29T02:55:23;101877.75;;;8.78;70.88
69402;BME280;56589;51.992;5.924;2023-05-29T02:57:49;101871.75;;;8.74;70.26
69402;BME280;56589;51.992;5.924;2023-05-29T03:00:15;101881.38;;;8.74;70.24
69402;BME280;56589;51.992;5.924;2023-05-29T03:02:41;101877.91;;;8.73;70.64
69402;BME280;56589;51.992;5.924;2023-05-29T03:05:07;101879.69;;;8.73;70.50
69402;BME280;56589;51.992;5.924;2023-05-29T03:07:34;101887.53;;;8.73;70.39
69402;BME280;56589;51.992;5.924;2023-05-29T03:10:02;101884.16;;;8.69;70.58
69402;BME280;56589;51.992;5.924;2023-05-29T03:12:28;101878.16;;;8.67;70.35
69402;BME280;56589;51.992;5.924;2023-05-29T03:14:54;101890.56;;;8.62;70.71
69402;BME280;56589;51.992;5.924;2023-05-29T03:17:20;101890.78;;;8.56;71.04
69402;BME280;56589;51.992;5.924;2023-05-29T03:19:46;101900.53;;;8.52;70.99
69402;BME280;56589;51.992;5.924;2023-05-29T03:22:12;101884.16;;;8.47;70.88
69402;BME280;56589;51.992;5.924;2023-05-29T03:24:38;101892.00;;;8.47;71.34
69402;BME280;56589;51.992;5.924;2023-05-29T03:27:06;101887.78;;;8.43;71.64
69402;BME280;56589;51.992;5.924;2023-05-29T03:29:32;101892.22;;;8.41;71.33
69402;BME280;56589;51.992;5.924;2023-05-29T03:31:58;101896.78;;;8.36;71.91
69402;BME280;56589;51.992;5.924;2023-05-29T03:34:24;101893.38;;;8.34;71.94
69402;BME280;56589;51.992;5.924;2023-05-29T03:36:50;101889.03;;;8.33;71.79
69402;BME280;56589;51.992;5.924;2023-05-29T03:39:15;101889.03;;;8.33;71.75
69402;BME280;56589;51.992;5.924;2023-05-29T03:41:41;101880.31;;;8.32;71.98
69402;BME280;56589;51.992;5.924;2023-05-29T03:44:10;101882.06;;;8.33;72.06
69402;BME280;56589;51.992;5.924;2023-05-29T03:46:35;101889.84;;;8.35;71.74
69402;BME280;56589;51.992;5.924;2023-05-29T03:49:01;101882.78;;;8.37;72.25
69402;BME280;56589;51.992;5.924;2023-05-29T03:51:27;101902.81;;;8.38;72.21
69402;BME280;56589;51.992;5.924;2023-05-29T03:53:53;101895.81;;;8.38;71.91
69402;BME280;56589;51.992;5.924;2023-05-29T03:56:19;101902.81;;;8.38;72.37
69402;BME280;56589;51.992;5.924;2023-05-29T03:58:45;101913.22;;;8.39;72.13
69402;BME280;56589;51.992;5.924;2023-05-29T04:01:13;101908.72;;;8.43;71.90
69402;BME280;56589;51.992;5.924;2023-05-29T04:03:39;101909.41;;;8.48;71.72
69402;BME280;56589;51.992;5.924;2023-05-29T04:06:05;101903.16;;;8.52;71.94
69402;BME280;56589;51.992;5.924;2023-05-29T04:08:32;101905.59;;;8.57;71.40
69402;BME280;56589;51.992;5.924;2023-05-29T04:10:57;101910.72;;;8.60;71.28
69402;BME280;56589;51.992;5.924;2023-05-29T04:13:23;101920.09;;;8.65;71.85
69402;BME280;56589;51.992;5.924;2023-05-29T04:15:49;101911.16;;;8.71;71.33
69402;BME280;56589;51.992;5.924;2023-05-29T04:18:18;101914.34;;;8.79;71.37
69402;BME280;56589;51.992;5.924;2023-05-29T04:20:43;101912.34;;;8.86;70.94
69402;BME280;56589;51.992;5.924;2023-05-29T04:23:09;101915.47;;;8.95;71.17
69402;BME280;56589;51.992;5.924;2023-05-29T04:25:35;101907.28;;;9.03;70.86
69402;BME280;56589;51.992;5.924;2023-05-29T04:28:01;101915.00;;;9.06;70.98
69402;BME280;56589;51.992;5.924;2023-05-29T04:30:26;101908.66;;;9.13;70.41
69402;BME280;56589;51.992;5.924;2023-05-29T04:32:52;101905.41;;;9.29;70.71
69402;BME280;56589;51.992;5.924;2023-05-29T04:35:21;101896.72;;;9.48;70.10
69402;BME280;56589;51.992;5.924;2023-05-29T04:37:46;101898.53;;;9.68;69.39
69402;BME280;56589;51.992;5.924;2023-05-29T04:40:13;101897.22;;;9.79;69.27
69402;BME280;56589;51.992;5.924;2023-05-29T04:42:39;101909.41;;;10.00;69.32
69402;BME280;56589;51.992;5.924;2023-05-29T04:45:06;101912.94;;;10.19;68.68
69402;BME280;56589;51.992;5.924;2023-05-29T04:47:32;101928.34;;;10.46;68.59
69402;BME280;56589;51.992;5.924;2023-05-29T04:49:58;101938.59;;;10.71;67.66
69402;BME280;56589;51.992;5.924;2023-05-29T04:52:27;101938.66;;;10.69;67.00
69402;BME280;56589;51.992;5.924;2023-05-29T04:54:53;101946.47;;;10.71;66.64
69402;BME280;56589;51.992;5.924;2023-05-29T04:57:18;101950.47;;;10.79;66.57
69402;BME280;56589;51.992;5.924;2023-05-29T04:59:44;101946.00;;;11.00;66.52
69402;BME280;56589;51.992;5.924;2023-05-29T05:02:10;101940.03;;;11.33;66.60
69402;BME280;56589;51.992;5.924;2023-05-29T05:04:36;101941.88;;;11.67;65.04
69402;BME280;56589;51.992;5.924;2023-05-29T05:07:02;101946.28;;;11.84;64.40
69402;BME280;56589;51.992;5.924;2023-05-29T05:09:31;101953.25;;;12.02;63.64
69402;BME280;56589;51.992;5.924;2023-05-29T05:11:57;101958.13;;;12.27;63.35
69402;BME280;56589;51.992;5.924;2023-05-29T05:14:23;101957.56;;;12.54;62.99
69402;BME280;56589;51.992;5.924;2023-05-29T05:16:49;101957.34;;;12.74;62.37
69402;BME280;56589;51.992;5.924;2023-05-29T05:19:16;101956.75;;;12.85;61.80
69402;BME280;56589;51.992;5.924;2023-05-29T05:21:42;101959.41;;;13.01;60.49
69402;BME280;56589;51.992;5.924;2023-05-29T05:24:08;101957.78;;;12.98;60.45
69402;BME280;56589;51.992;5.924;2023-05-29T05:26:36;101945.09;;;13.05;60.49
69402;BME280;56589;51.992;5.924;2023-05-29T05:29:02;101959.50;;;13.15;59.69
69402;BME280;56589;51.992;5.924;2023-05-29T05:31:28;101953.78;;;13.22;59.51
69402;BME280;56589;51.992;5.924;2023-05-29T05:33:54;101955.28;;;13.42;60.11
69402;BME280;56589;51.992;5.924;2023-05-29T05:36:20;101949.56;;;13.66;58.21
69402;BME280;56589;51.992;5.924;2023-05-29T05:38:46;101945.97;;;13.67;57.23
69402;BME280;56589;51.992;5.924;2023-05-29T05:41:12;101958.25;;;13.68;58.46
69402;BME280;56589;51.992;5.924;2023-05-29T05:43:40;101957.91;;;13.88;58.01
69402;BME280;56589;51.992;5.924;2023-05-29T05:46:06;101963.41;;;13.99;56.86
69402;BME280;56589;51.992;5.924;2023-05-29T05:48:31;101964.84;;;14.05;56.52
69402;BME280;56589;51.992;5.924;2023-05-29T05:50:57;101963.63;;;14.11;56.52
69402;BME280;56589;51.992;5.924;2023-05-29T05:53:23;101973.34;;;14.10;55.96
69402;BME280;56589;51.992;5.924;2023-05-29T05:55:49;101966.91;;;14.14;56.02
69402;BME280;56589;51.992;5.924;2023-05-29T05:58:15;101964.97;;;14.32;56.02
69402;BME280;56589;51.992;5.924;2023-05-29T06:00:43;101967.38;;;14.65;55.40
69402;BME280;56589;51.992;5.924;2023-05-29T06:03:09;101970.63;;;14.83;53.88
69402;BME280;56589;51.992;5.924;2023-05-29T06:05:35;101976.88;;;14.96;54.15
69402;BME280;56589;51.992;5.924;2023-05-29T06:08:00;101976.66;;;15.26;53.19
69402;BME280;56589;51.992;5.924;2023-05-29T06:10:26;101977.63;;;15.52;53.25
69402;BME280;56589;51.992;5.924;2023-05-29T06:12:52;101970.22;;;15.84;52.08
69402;BME280;56589;51.992;5.924;2023-05-29T06:15:18;101973.31;;;15.91;51.89
69402;BME280;56589;51.992;5.924;2023-05-29T06:17:47;101979.13;;;15.96;51.40
69402;BME280;56589;51.992;5.924;2023-05-29T06:20:12;101984.22;;;16.12;50.70
69402;BME280;56589;51.992;5.924;2023-05-29T06:22:38;101981.25;;;16.16;50.92
69402;BME280;56589;51.992;5.924;2023-05-29T06:25:04;101973.19;;;16.31;50.24
69402;BME280;56589;51.992;5.924;2023-05-29T06:27:31;101988.59;;;16.51;48.99
69402;BME280;56589;51.992;5.924;2023-05-29T06:29:57;101982.44;;;16.51;48.53
69402;BME280;56589;51.992;5.924;2023-05-29T06:32:22;101979.03;;;16.36;49.20
69402;BME280;56589;51.992;5.924;2023-05-29T06:34:51;101986.25;;;16.46;48.64
69402;BME280;56589;51.992;5.924;2023-05-29T06:37:17;101989.00;;;16.70;48.70
69402;BME280;56589;51.992;5.924;2023-05-29T06:39:44;101979.16;;;17.09;48.37
69402;BME280;56589;51.992;5.924;2023-05-29T06:42:10;101986.53;;;17.30;47.11
69402;BME280;56589;51.992;5.924;2023-05-29T06:44:36;101986.03;;;17.48;47.11
69402;BME280;56589;51.992;5.924;2023-05-29T06:47:02;101991.16;;;17.63;46.41
69402;BME280;56589;51.992;5.924;2023-05-29T06:49:27;101984.44;;;17.70;45.47
69402;BME280;56589;51.992;5.924;2023-05-29T06:51:56;101983.72;;;17.68;45.75
69402;BME280;56589;51.992;5.924;2023-05-29T06:54:22;101986.09;;;17.95;45.04
69402;BME280;56589;51.992;5.924;2023-05-29T06:56:47;101974.72;;;17.93;44.45
69402;BME280;56589;51.992;5.924;2023-05-29T06:59:13;101987.41;;;17.65;44.27
69402;BME280;56589;51.992;5.924;2023-05-29T07:01:39;101994.78;;;17.38;44.67
69402;BME280;56589;51.992;5.924;2023-05-29T07:04:05;102001.13;;;17.11;44.12
69402;BME280;56589;51.992;5.924;2023-05-29T07:06:31;102008.88;;;17.14;46.41
69402;BME280;56589;51.992;5.924;2023-05-29T07:08:59;101993.75;;;17.51;44.57
69402;BME280;56589;51.992;5.924;2023-05-29T07:11:25;101994.34;;;17.68;44.65
69402;BME280;56589;51.992;5.924;2023-05-29T07:13:51;101993.94;;;17.96;44.52
69402;BME280;56589;51.992;5.924;2023-05-29T07:16:18;101998.38;;;18.42;43.80
69402;BME280;56589;51.992;5.924;2023-05-29T07:18:44;101997.09;;;18.59;43.42
69402;BME280;56589;51.992;5.924;2023-05-29T07:21:10;102002.16;;;18.62;42.96
69402;BME280;56589;51.992;5.924;2023-05-29T07:23:36;102005.53;;;18.53;42.63
69402;BME280;56589;51.992;5.924;2023-05-29T07:26:04;102010.13;;;18.40;42.11
69402;BME280;56589;51.992;5.924;2023-05-29T07:28:30;102011.28;;;18.24;42.70
69402;BME280;56589;51.992;5.924;2023-05-29T07:30:56;102001.28;;;18.28;42.71
69402;BME280;56589;51.992;5.924;2023-05-29T07:33:22;102002.84;;;18.30;42.50
69402;BME280;56589;51.992;5.924;2023-05-29T07:35:48;101998.84;;;18.25;43.16
69402;BME280;56589;51.992;5.924;2023-05-29T07:38:13;102009.34;;;18.26;42.67
69402;BME280;56589;51.992;5.924;2023-05-29T07:40:39;102012.03;;;18.38;42.81
69402;BME280;56589;51.992;5.924;2023-05-29T07:43:08;102012.94;;;18.72;43.05
69402;BME280;56589;51.992;5.924;2023-05-29T07:45:33;102013.63;;;19.07;41.94
69402;BME280;56589;51.992;5.924;2023-05-29T07:47:59;102013.28;;;18.90;40.87
69402;BME280;56589;51.992;5.924;2023-05-29T07:50:25;102014.97;;;18.68;41.67
69402;BME280;56589;51.992;5.924;2023-05-29T07:52:51;102018.22;;;18.49;41.83
69402;BME280;56589;51.992;5.924;2023-05-29T07:55:17;102017.13;;;18.41;41.49
69402;BME280;56589;51.992;5.924;2023-05-29T07:57:43;102015.88;;;18.22;42.22
69402;BME280;56589;51.992;5.924;2023-05-29T08:00:12;102017.22;;;18.50;42.38
69402;BME280;56589;51.992;5.924;2023-05-29T08:02:38;102013.38;;;18.54;41.17
69402;BME280;56589;51.992;5.924;2023-05-29T08:05:04;102022.06;;;18.45;42.31
69402;BME280;56589;51.992;5.924;2023-05-29T08:07:30;102014.75;;;18.60;42.11
69402;BME280;56589;51.992;5.924;2023-05-29T08:09:56;102026.94;;;18.63;41.37
69402;BME280;56589;51.992;5.924;2023-05-29T08:12:22;102019.28;;;18.36;41.69
69402;BME280;56589;51.992;5.924;2023-05-29T08:14:47;102010.66;;;18.21;41.67
69402;BME280;56589;51.992;5.924;2023-05-29T08:17:16;102019.94;;;18.04;41.36
69402;BME280;56589;51.992;5.924;2023-05-29T08:19:41;102010.66;;;18.10;42.02
69402;BME280;56589;51.992;5.924;2023-05-29T08:22:07;102019.13;;;18.26;41.84
69402;BME280;56589;51.992;5.924;2023-05-29T08:24:37;102021.69;;;18.39;41.64
69402;BME280;56589;51.992;5.924;2023-05-29T08:27:04;102031.97;;;18.43;41.26
69402;BME280;56589;51.992;5.924;2023-05-29T08:29:29;102022.44;;;18.41;40.93
69402;BME280;56589;51.992;5.924;2023-05-29T08:31:55;102018.69;;;18.43;41.89
69402;BME280;56589;51.992;5.924;2023-05-29T08:34:24;102031.16;;;18.54;41.97
69402;BME280;56589;51.992;5.924;2023-05-29T08:36:49;102022.84;;;18.70;40.76
69402;BME280;56589;51.992;5.924;2023-05-29T08:39:15;102019.91;;;18.50;40.75
69402;BME280;56589;51.992;5.924;2023-05-29T08:41:46;102024.72;;;18.45;41.02
69402;BME280;56589;51.992;5.924;2023-05-29T08:44:22;102019.28;;;18.36;41.09
69402;BME280;56589;51.992;5.924;2023-05-29T08:46:49;102028.22;;;18.35;40.92
69402;BME280;56589;51.992;5.924;2023-05-29T08:49:20;102034.41;;;18.35;41.26
69402;BME280;56589;51.992;5.924;2023-05-29T08:51:52;102026.09;;;18.62;41.23
69402;BME280;56589;51.992;5.924;2023-05-29T08:54:30;102027.31;;;18.92;40.44
69402;BME280;56589;51.992;5.924;2023-05-29T08:56:57;102029.97;;;18.92;40.00
69402;BME280;56589;51.992;5.924;2023-05-29T08:59:24;102029.00;;;18.81;39.55
69402;BME280;56589;51.992;5.924;2023-05-29T09:01:51;102025.28;;;18.73;40.22
69402;BME280;56589;51.992;5.924;2023-05-29T09:04:17;102029.13;;;18.80;39.74
69402;BME280;56589;51.992;5.924;2023-05-29T09:06:44;102033.34;;;18.82;40.66
69402;BME280;56589;51.992;5.924;2023-05-29T09:09:13;102030.69;;;18.94;40.06
69402;BME280;56589;51.992;5.924;2023-05-29T09:11:38;102031.53;;;19.05;40.04
69402;BME280;56589;51.992;5.924;2023-05-29T09:14:04;102023.88;;;19.23;39.75
69402;BME280;56589;51.992;5.924;2023-05-29T09:16:30;102038.72;;;19.37;40.05
69402;BME280;56589;51.992;5.924;2023-05-29T09:19:04;102035.13;;;19.38;39.10
69402;BME280;56589;51.992;5.924;2023-05-29T09:21:31;102042.31;;;19.15;39.24
69402;BME280;56589;51.992;5.924;2023-05-29T09:24:03;102043.63;;;19.09;39.38
69402;BME280;56589;51.992;5.924;2023-05-29T09:26:32;102032.03;;;18.99;40.21
69402;BME280;56589;51.992;5.924;2023-05-29T09:28:58;102042.81;;;18.98;40.41
69402;BME280;56589;51.992;5.924;2023-05-29T09:31:24;102038.81;;;18.92;40.02
69402;BME280;56589;51.992;5.924;2023-05-29T09:33:50;102029.00;;;18.93;40.25
69402;BME280;56589;51.992;5.924;2023-05-29T09:36:22;102038.66;;;19.05;40.43
69402;BME280;56589;51.992;5.924;2023-05-29T09:38:49;102031.38;;;19.29;40.92
69402;BME280;56589;51.992;5.924;2023-05-29T09:41:20;102035.69;;;19.53;39.61
69402;BME280;56589;51.992;5.924;2023-05-29T09:43:49;102031.09;;;19.55;40.13
69402;BME280;56589;51.992;5.924;2023-05-29T09:46:15;102032.19;;;19.84;39.99
69402;BME280;56589;51.992;5.924;2023-05-29T09:48:42;102027.13;;;20.02;39.21
69402;BME280;56589;51.992;5.924;2023-05-29T09:51:19;102029.13;;;20.10;38.95
69402;BME280;56589;51.992;5.924;2023-05-29T09:53:46;102024.78;;;20.09;39.00
69402;BME280;56589;51.992;5.924;2023-05-29T09:56:12;102020.56;;;20.06;38.96
69402;BME280;56589;51.992;5.924;2023-05-29T09:58:41;102042.34;;;20.11;39.54
69402;BME280;56589;51.992;5.924;2023-05-29T10:01:10;102031.16;;;20.17;38.74
69402;BME280;56589;51.992;5.924;2023-05-29T10:03:36;102027.50;;;19.98;38.95
69402;BME280;56589;51.992;5.924;2023-05-29T10:06:04;102038.97;;;19.88;39.20
69402;BME280;56589;51.992;5.924;2023-05-29T10:08:33;102030.25;;;20.07;39.32
69402;BME280;56589;51.992;5.924;2023-05-29T10:11:02;102027.31;;;20.10;39.02
69402;BME280;56589;51.992;5.924;2023-05-29T10:13:33;102035.31;;;20.10;38.64
69402;BME280;56589;51.992;5.924;2023-05-29T10:16:03;102032.38;;;19.92;38.71
69402;BME280;56589;51.992;5.924;2023-05-29T10:18:36;102023.88;;;19.99;39.01
69402;BME280;56589;51.992;5.924;2023-05-29T10:21:04;102019.00;;;20.04;39.05
69402;BME280;56589;51.992;5.924;2023-05-29T10:23:33;102024.31;;;19.83;38.83
69402;BME280;56589;51.992;5.924;2023-05-29T10:26:08;102020.53;;;19.64;38.46
69402;BME280;56589;51.992;5.924;2023-05-29T10:28:40;102015.44;;;19.61;38.26
69402;BME280;56589;51.992;5.924;2023-05-29T10:31:17;102022.13;;;19.56;38.03
69402;BME280;56589;51.992;5.924;2023-05-29T10:34:02;102020.59;;;19.31;38.03
69402;BME280;56589;51.992;5.924;2023-05-29T10:36:42;102016.75;;;19.12;39.06
69402;BME280;56589;51.992;5.924;2023-05-29T10:39:12;102026.56;;;19.12;38.60
69402;BME280;56589;51.992;5.924;2023-05-29T10:41:38;102012.06;;;19.05;38.39
69402;BME280;56589;51.992;5.924;2023-05-29T10:44:37;102021.25;;;19.01;38.28
69402;BME280;56589;51.992;5.924;2023-05-29T10:47:05;102023.44;;;18.96;38.43
69402;BME280;56589;51.992;5.924;2023-05-29T10:49:34;102016.91;;;18.89;38.47
69402;BME280;56589;51.992;5.924;2023-05-29T10:52:00;102025.38;;;18.82;38.36
69402;BME280;56589;51.992;5.924;2023-05-29T10:54:40;102025.72;;;19.00;38.59
69402;BME280;56589;51.992;5.924;2023-05-29T10:57:15;102021.47;;;19.20;38.51
69402;BME280;56589;51.992;5.924;2023-05-29T10:59:40;102014.34;;;19.21;37.82
69402;BME280;56589;51.992;5.924;2023-05-29T11:02:06;102007.56;;;19.05;37.54
69402;BME280;56589;51.992;5.924;2023-05-29T11:04:37;102011.34;;;18.92;37.60
69402;BME280;56589;51.992;5.924;2023-05-29T11:07:03;102023.69;;;18.70;38.02
69402;BME280;56589;51.992;5.924;2023-05-29T11:09:30;102012.75;;;18.51;38.04
69402;BME280;56589;51.992;5.924;2023-05-29T11:12:13;102016.50;;;18.37;38.21
69402;BME280;56589;51.992;5.924;2023-05-29T11:14:47;102007.66;;;18.25;38.58
69402;BME280;56589;51.992;5.924;2023-05-29T11:17:29;102005.00;;;18.25;37.92
69402;BME280;56589;51.992;5.924;2023-05-29T11:20:01;102006.09;;;18.23;37.98
69402;BME280;56589;51.992;5.924;2023-05-29T11:22:31;102009.13;;;18.29;37.75
69402;BME280;56589;51.992;5.924;2023-05-29T11:25:17;102010.56;;;18.45;38.61
69402;BME280;56589;51.992;5.924;2023-05-29T11:27:44;102008.47;;;18.72;38.08
69402;BME280;56589;51.992;5.924;2023-05-29T11:30:11;101999.59;;;18.94;37.78
69402;BME280;56589;51.992;5.924;2023-05-29T11:32:39;102013.38;;;19.10;36.75
69402;BME280;56589;51.992;5.924;2023-05-29T11:35:12;102008.81;;;19.01;36.94
69402;BME280;56589;51.992;5.924;2023-05-29T11:37:40;101999.50;;;18.84;37.55
69402;BME280;56589;51.992;5.924;2023-05-29T11:40:07;101994.53;;;18.80;37.42
69402;BME280;56589;51.992;5.924;2023-05-29T11:42:34;101996.97;;;18.72;38.03
69402;BME280;56589;51.992;5.924;2023-05-29T11:45:11;101999.63;;;18.72;38.27
69402;BME280;56589;51.992;5.924;2023-05-29T11:47:53;101992.59;;;18.82;37.66
69402;BME280;56589;51.992;5.924;2023-05-29T11:50:24;102002.88;;;18.86;38.12
69402;BME280;56589;51.992;5.924;2023-05-29T11:52:51;101996.47;;;18.89;37.73
69402;BME280;56589;51.992;5.924;2023-05-29T11:55:17;101988.00;;;18.95;38.44
69402;BME280;56589;51.992;5.924;2023-05-29T11:57:43;101989.69;;;19.07;37.38
69402;BME280;56589;51.992;5.924;2023-05-29T12:00:13;101988.81;;;19.07;36.97
69402;BME280;56589;51.992;5.924;2023-05-29T12:02:40;101997.78;;;18.95;37.06
69402;BME280;56589;51.992;5.924;2023-05-29T12:05:06;101994.75;;;18.88;37.45
69402;BME280;56589;51.992;5.924;2023-05-29T12:07:35;101997.78;;;18.95;37.30
69402;BME280;56589;51.992;5.924;2023-05-29T12:10:11;102002.00;;;19.08;37.25
69402;BME280;56589;51.992;5.924;2023-05-29T12:12:41;101999.06;;;19.23;37.77
69402;BME280;56589;51.992;5.924;2023-05-29T12:15:08;101989.97;;;19.25;36.68
69402;BME280;56589;51.992;5.924;2023-05-29T12:17:35;101992.19;;;19.20;36.37
69402;BME280;56589;51.992;5.924;2023-05-29T12:20:03;101989.41;;;19.10;36.72
69402;BME280;56589;51.992;5.924;2023-05-29T12:22:35;102000.34;;;19.07;36.40
69402;BME280;56589;51.992;5.924;2023-05-29T12:25:07;101990.03;;;19.03;36.57
69402;BME280;56589;51.992;5.924;2023-05-29T12:27:37;101989.41;;;19.10;37.21
69402;BME280;56589;51.992;5.924;2023-05-29T12:30:05;101992.78;;;19.24;37.07
69402;BME280;56589;51.992;5.924;2023-05-29T12:32:36;102001.72;;;19.34;35.84
69402;BME280;56589;51.992;5.924;2023-05-29T12:35:13;101989.97;;;19.25;35.92
69402;BME280;56589;51.992;5.924;2023-05-29T12:37:46;101982.41;;;19.09;35.77
69402;BME280;56589;51.992;5.924;2023-05-29T12:40:20;101991.03;;;18.91;36.26
69402;BME280;56589;51.992;5.924;2023-05-29T12:42:48;101983.88;;;18.91;36.65
69402;BME280;56589;51.992;5.924;2023-05-29T12:45:19;102003.22;;;18.93;36.79
69402;BME280;56589;51.992;5.924;2023-05-29T12:47:51;101989.78;;;18.95;36.21
69402;BME280;56589;51.992;5.924;2023-05-29T12:50:22;102002.53;;;18.91;36.23
69402;BME280;56589;51.992;5.924;2023-05-29T12:52:59;101994.06;;;18.86;35.98
69402;BME280;56589;51.992;5.924;2023-05-29T12:55:27;101985.72;;;18.79;36.85